Time;durP1;ratioP1;P1;durP2;ratioP2;P2;SDS_P1;SDS_P2;PMS_P1;PMS_P2;Temp;Humidity;BMP_temperature;BMP_pressure;BME280_temperature;BME280_humidity;BME280_pressure;Samples;Min_cycle;Max_cycle;Signal;HPM_P1;HPM_P2
2023/10/04 00:00:19;;;;;;;4.18;1.30;;;;;;;;;;4979021;28;20062;-66
2023/10/04 00:02:49;;;;;;;6.03;2.28;;;;;;;;;;4979624;28;20396;-67
2023/10/04 00:05:17;;;;;;;4.88;1.67;;;;;;;;;;4979150;28;20049;-66
2023/10/04 00:07:47;;;;;;;3.33;1.20;;;;;;;;;;4979709;28;20083;-65
2023/10/04 00:10:15;;;;;;;4.63;1.35;;;;;;;;;;4993070;28;20111;-66
2023/10/04 00:12:42;;;;;;;3.88;1.10;;;;;;;;;;4984714;28;20046;-65
2023/10/04 00:15:11;;;;;;;3.65;1.10;;;;;;;;;;4997051;28;20120;-64
2023/10/04 00:17:41;;;;;;;3.45;1.10;;;;;;;;;;4977050;28;20043;-65
2023/10/04 00:20:16;;;;;;;3.10;0.88;;;;;;;;;;4979355;28;20571;-64
2023/10/04 00:22:43;;;;;;;3.35;1.20;;;;;;;;;;4978506;28;20041;-65
2023/10/04 00:25:16;;;;;;;4.25;1.33;;;;;;;;;;4997999;28;20041;-65
2023/10/04 00:27:44;;;;;;;4.82;1.40;;;;;;;;;;4979606;28;20041;-65
2023/10/04 00:30:30;;;;;;;3.30;1.13;;;;;;;;;;5011642;28;20653;-65
2023/10/04 00:32:58;;;;;;;4.60;1.10;;;;;;;;;;4996676;28;20041;-65
2023/10/04 00:35:25;;;;;;;4.35;1.10;;;;;;;;;;5014172;28;20406;-65
2023/10/04 00:37:55;;;;;;;4.45;1.17;;;;;;;;;;5014330;28;20051;-66
2023/10/04 00:40:27;;;;;;;5.95;1.23;;;;;;;;;;5013809;28;20057;-67
2023/10/04 00:42:55;;;;;;;4.25;1.85;;;;;;;;;;5014834;28;20755;-64
2023/10/04 00:45:23;;;;;;;5.00;1.90;;;;;;;;;;5013144;28;20081;-64
2023/10/04 00:47:56;;;;;;;4.18;1.52;;;;;;;;;;5014992;28;20038;-66
2023/10/04 00:50:31;;;;;;;3.80;1.48;;;;;;;;;;5016050;28;20099;-66
2023/10/04 00:53:17;;;;;;;4.32;1.30;;;;;;;;;;5006610;28;20180;-69
2023/10/04 00:55:45;;;;;;;5.00;1.20;;;;;;;;;;5025516;28;20033;-66
2023/10/04 00:58:17;;;;;;;5.07;1.20;;;;;;;;;;5015396;28;20047;-66
2023/10/04 01:01:01;;;;;;;4.15;1.05;;;;;;;;;;5005028;28;20157;-62
2023/10/04 01:03:30;;;;;;;11.18;1.38;;;;;;;;;;5002246;28;20139;-62
2023/10/04 01:05:58;;;;;;;5.30;1.30;;;;;;;;;;5004430;28;20041;-63
2023/10/04 01:08:25;;;;;;;3.65;1.20;;;;;;;;;;5004911;28;20402;-62
2023/10/04 01:10:56;;;;;;;6.65;1.17;;;;;;;;;;5013466;28;20099;-62
2023/10/04 01:13:22;;;;;;;5.13;1.20;;;;;;;;;;5013491;28;20048;-62
2023/10/04 01:15:54;;;;;;;4.15;1.00;;;;;;;;;;5014366;28;20064;-61
2023/10/04 01:18:22;;;;;;;3.67;1.08;;;;;;;;;;5012415;28;20512;-66
2023/10/04 01:20:49;;;;;;;3.47;1.20;;;;;;;;;;5018239;28;20148;-63
2023/10/04 01:23:18;;;;;;;3.70;1.10;;;;;;;;;;5002831;28;20547;-64
2023/10/04 01:25:48;;;;;;;5.18;1.33;;;;;;;;;;5021652;28;20648;-60
2023/10/04 01:28:27;;;;;;;3.75;1.10;;;;;;;;;;5013004;28;20054;-63
2023/10/04 01:30:54;;;;;;;5.53;1.42;;;;;;;;;;5013064;28;20053;-61
2023/10/04 01:33:21;;;;;;;10.50;1.70;;;;;;;;;;4987233;28;20144;-63
2023/10/04 01:36:07;;;;;;;5.22;1.70;;;;;;;;;;5012385;28;20037;-63
2023/10/04 01:38:35;;;;;;;6.90;1.60;;;;;;;;;;5015417;28;20505;-63
2023/10/04 01:41:04;;;;;;;7.47;1.58;;;;;;;;;;5017370;28;20079;-63
2023/10/04 01:43:30;;;;;;;3.95;1.42;;;;;;;;;;5015658;28;20421;-61
2023/10/04 01:45:58;;;;;;;9.75;1.60;;;;;;;;;;5016709;28;20041;-67
2023/10/04 01:48:32;;;;;;;4.75;1.45;;;;;;;;;;5016372;28;20037;-70
2023/10/04 01:51:03;;;;;;;7.10;1.98;;;;;;;;;;5018181;28;21322;-65
2023/10/04 01:53:29;;;;;;;7.90;3.25;;;;;;;;;;5016782;28;20456;-65
2023/10/04 01:55:59;;;;;;;7.50;2.75;;;;;;;;;;5017544;28;20046;-62
2023/10/04 01:58:26;;;;;;;5.15;1.73;;;;;;;;;;4999696;28;20081;-62
2023/10/04 02:01:00;;;;;;;5.15;1.60;;;;;;;;;;5016122;28;20057;-61
2023/10/04 02:03:27;;;;;;;5.22;2.13;;;;;;;;;;5015995;28;20127;-62
2023/10/04 02:05:59;;;;;;;8.07;1.73;;;;;;;;;;5016839;28;20041;-63
2023/10/04 02:08:27;;;;;;;5.95;1.38;;;;;;;;;;4973769;28;20211;-66
2023/10/04 02:11:13;;;;;;;6.20;1.20;;;;;;;;;;5009685;28;20056;-63
2023/10/04 02:13:40;;;;;;;5.00;1.65;;;;;;;;;;5011768;28;20049;-62
2023/10/04 02:16:08;;;;;;;5.10;1.63;;;;;;;;;;5029111;28;20048;-62
2023/10/04 02:18:35;;;;;;;4.93;1.52;;;;;;;;;;5026687;28;20124;-64
2023/10/04 02:21:02;;;;;;;9.18;1.60;;;;;;;;;;5012351;28;20506;-62
2023/10/04 02:23:29;;;;;;;4.32;1.48;;;;;;;;;;5010618;28;20601;-63
2023/10/04 02:25:57;;;;;;;7.32;1.67;;;;;;;;;;5012760;28;20057;-61
2023/10/04 02:28:25;;;;;;;5.70;1.98;;;;;;;;;;5012459;28;20675;-64
2023/10/04 02:30:55;;;;;;;8.63;2.15;;;;;;;;;;5013064;28;20057;-62
2023/10/04 02:33:22;;;;;;;4.72;1.48;;;;;;;;;;5012371;28;20040;-64
2023/10/04 02:35:50;;;;;;;5.88;1.63;;;;;;;;;;5011987;28;20537;-61
2023/10/04 02:38:23;;;;;;;4.28;1.20;;;;;;;;;;5012312;28;20056;-63
2023/10/04 02:40:53;;;;;;;4.43;1.20;;;;;;;;;;5014583;28;20054;-62
2023/10/04 02:43:21;;;;;;;3.30;1.15;;;;;;;;;;5017064;28;20045;-62
2023/10/04 02:45:48;;;;;;;5.07;1.60;;;;;;;;;;5015414;28;20092;-62
2023/10/04 02:48:15;;;;;;;4.47;1.40;;;;;;;;;;5011736;28;20041;-61
2023/10/04 02:50:43;;;;;;;5.40;1.48;;;;;;;;;;4993582;28;20046;-63
2023/10/04 02:53:16;;;;;;;5.28;1.55;;;;;;;;;;4980876;28;20453;-61
2023/10/04 02:55:42;;;;;;;4.32;1.45;;;;;;;;;;4979647;28;20049;-63
2023/10/04 02:58:10;;;;;;;5.07;1.67;;;;;;;;;;4980411;28;20101;-61
2023/10/04 03:00:42;;;;;;;7.35;1.90;;;;;;;;;;4977812;28;20054;-62
2023/10/04 03:03:09;;;;;;;4.78;1.38;;;;;;;;;;4980161;28;20054;-63
2023/10/04 03:05:37;;;;;;;4.10;1.45;;;;;;;;;;4994028;28;20577;-63
2023/10/04 03:08:06;;;;;;;7.47;1.75;;;;;;;;;;4979500;28;20048;-60
2023/10/04 03:10:40;;;;;;;8.32;1.67;;;;;;;;;;4979684;28;20615;-61
2023/10/04 03:13:22;;;;;;;7.22;1.50;;;;;;;;;;4977903;28;20052;-62
2023/10/04 03:15:50;;;;;;;11.38;1.83;;;;;;;;;;4979423;28;20057;-60
2023/10/04 03:18:20;;;;;;;6.40;1.63;;;;;;;;;;4979509;28;20038;-61
2023/10/04 03:23:32;;;;;;;6.40;1.67;;;;;;;;;;4979825;28;20030;-61
2023/10/04 03:26:00;;;;;;;4.88;1.65;;;;;;;;;;4979586;28;20479;-62
2023/10/04 03:28:31;;;;;;;4.30;1.48;;;;;;;;;;4978331;28;20124;-61
2023/10/04 03:30:57;;;;;;;7.05;1.77;;;;;;;;;;4977504;28;20074;-63
2023/10/04 03:33:26;;;;;;;9.48;1.38;;;;;;;;;;4980750;28;20145;-62
2023/10/04 03:35:53;;;;;;;6.90;1.80;;;;;;;;;;4978913;28;20050;-62
2023/10/04 03:38:20;;;;;;;6.22;1.65;;;;;;;;;;5009652;28;20169;-63
2023/10/04 03:40:47;;;;;;;5.90;1.63;;;;;;;;;;4992753;28;20060;-63
2023/10/04 03:43:14;;;;;;;5.95;1.60;;;;;;;;;;4984333;28;20038;-61
2023/10/04 03:45:41;;;;;;;6.22;2.05;;;;;;;;;;4978887;28;20049;-62
2023/10/04 03:48:15;;;;;;;4.78;1.63;;;;;;;;;;4979600;28;21608;-60
2023/10/04 03:50:45;;;;;;;4.70;1.38;;;;;;;;;;4978480;28;20042;-63
2023/10/04 03:53:12;;;;;;;8.90;4.47;;;;;;;;;;4981577;28;20088;-66
2023/10/04 03:55:39;;;;;;;7.03;2.00;;;;;;;;;;4978136;28;20128;-67
2023/10/04 03:58:07;;;;;;;7.63;2.00;;;;;;;;;;4983014;28;20040;-63
2023/10/04 04:00:34;;;;;;;4.20;1.83;;;;;;;;;;4995464;28;20641;-63
2023/10/04 04:03:01;;;;;;;6.43;1.75;;;;;;;;;;4981014;28;20093;-63
2023/10/04 04:05:29;;;;;;;6.30;1.83;;;;;;;;;;4979659;28;20467;-64
2023/10/04 04:07:56;;;;;;;8.15;1.60;;;;;;;;;;4980734;28;20684;-63
2023/10/04 04:10:24;;;;;;;4.03;1.48;;;;;;;;;;4979610;28;20046;-63
2023/10/04 04:12:52;;;;;;;4.90;1.63;;;;;;;;;;4978653;28;20074;-61
2023/10/04 04:15:19;;;;;;;5.18;1.70;;;;;;;;;;5010644;28;20038;-63
2023/10/04 04:17:46;;;;;;;7.97;1.73;;;;;;;;;;4979480;28;20850;-63
2023/10/04 04:22:58;;;;;;;5.32;1.73;;;;;;;;;;4982132;28;20046;-62
2023/10/04 04:25:26;;;;;;;5.13;1.77;;;;;;;;;;4981027;28;20081;-61
2023/10/04 04:27:53;;;;;;;8.93;2.10;;;;;;;;;;4978993;28;20985;-59
2023/10/04 04:30:28;;;;;;;7.25;2.00;;;;;;;;;;4978855;28;20088;-61
2023/10/04 04:32:58;;;;;;;5.07;2.15;;;;;;;;;;4976717;28;20054;-61
2023/10/04 04:38:19;;;;;;;5.90;2.10;;;;;;;;;;4978005;28;20696;-62
2023/10/04 04:40:48;;;;;;;5.57;1.90;;;;;;;;;;4978175;28;20481;-60
2023/10/04 04:45:51;;;;;;;6.28;2.30;;;;;;;;;;4978534;28;20045;-63
2023/10/04 04:48:19;;;;;;;6.85;2.20;;;;;;;;;;4977736;28;20490;-61
2023/10/04 04:50:48;;;;;;;6.65;2.38;;;;;;;;;;4977764;28;20030;-63
2023/10/04 04:53:18;;;;;;;6.05;2.47;;;;;;;;;;4978046;28;20038;-61
2023/10/04 04:55:45;;;;;;;4.45;2.30;;;;;;;;;;4978020;28;20069;-62
2023/10/04 04:58:14;;;;;;;11.80;3.05;;;;;;;;;;5005461;28;20122;-63
2023/10/04 05:00:44;;;;;;;9.63;2.45;;;;;;;;;;4977613;28;20141;-63
2023/10/04 05:03:12;;;;;;;6.72;2.53;;;;;;;;;;4977734;28;20126;-61
2023/10/04 05:05:39;;;;;;;10.75;2.72;;;;;;;;;;4991035;28;20133;-61
2023/10/04 05:08:06;;;;;;;7.03;2.72;;;;;;;;;;4976523;28;20046;-61
2023/10/04 05:10:39;;;;;;;8.95;2.72;;;;;;;;;;4993619;28;20046;-60
2023/10/04 05:13:13;;;;;;;6.25;2.55;;;;;;;;;;4993942;28;20133;-60
2023/10/04 05:15:42;;;;;;;8.18;2.63;;;;;;;;;;4977329;28;20106;-61
2023/10/04 05:18:16;;;;;;;7.45;2.92;;;;;;;;;;4978675;28;20039;-62
2023/10/04 05:20:55;;;;;;;11.30;2.88;;;;;;;;;;4991487;28;20058;-62
2023/10/04 05:23:23;;;;;;;4.95;2.42;;;;;;;;;;4978972;28;20167;-60
2023/10/04 05:25:50;;;;;;;7.35;2.90;;;;;;;;;;4978619;28;20042;-60
2023/10/04 05:28:17;;;;;;;6.15;3.03;;;;;;;;;;4979900;28;20615;-61
2023/10/04 05:30:45;;;;;;;8.13;3.35;;;;;;;;;;4979452;28;20053;-61
2023/10/04 05:33:13;;;;;;;8.13;3.35;;;;;;;;;;4977951;28;20459;-62
2023/10/04 05:35:41;;;;;;;6.93;3.15;;;;;;;;;;4978764;28;20930;-63
2023/10/04 05:38:11;;;;;;;7.88;3.10;;;;;;;;;;4975685;28;20050;-59
2023/10/04 05:40:39;;;;;;;9.63;3.20;;;;;;;;;;4991468;28;20054;-61
2023/10/04 05:43:06;;;;;;;12.85;3.85;;;;;;;;;;4977364;28;20483;-60
2023/10/04 05:45:34;;;;;;;10.00;3.22;;;;;;;;;;4979830;28;20049;-60
2023/10/04 05:48:01;;;;;;;7.35;3.13;;;;;;;;;;4977661;28;20600;-64
2023/10/04 05:50:32;;;;;;;8.82;3.30;;;;;;;;;;4976307;28;20511;-60
2023/10/04 05:53:01;;;;;;;8.73;3.30;;;;;;;;;;4979599;28;20308;-63
2023/10/04 05:55:28;;;;;;;6.43;2.83;;;;;;;;;;4975969;28;20046;-63
2023/10/04 05:57:55;;;;;;;8.73;3.45;;;;;;;;;;4975974;28;20042;-62
2023/10/04 06:02:59;;;;;;;8.80;3.30;;;;;;;;;;4976542;28;20045;-60
2023/10/04 06:05:27;;;;;;;11.70;3.72;;;;;;;;;;4976061;28;20037;-62
2023/10/04 06:07:57;;;;;;;7.90;3.42;;;;;;;;;;4977126;28;20034;-60
2023/10/04 06:10:24;;;;;;;7.90;3.55;;;;;;;;;;4975999;28;20104;-60
2023/10/04 06:12:55;;;;;;;7.15;2.85;;;;;;;;;;5016989;28;20046;-60
2023/10/04 06:15:24;;;;;;;9.77;2.85;;;;;;;;;;4975042;28;20189;-65
2023/10/04 06:17:52;;;;;;;11.45;3.47;;;;;;;;;;4977679;28;20215;-62
2023/10/04 06:20:44;;;;;;;8.40;3.38;;;;;;;;;;5007841;28;20046;-64
2023/10/04 06:23:11;;;;;;;7.53;2.75;;;;;;;;;;4981472;28;20034;-63
2023/10/04 06:25:41;;;;;;;7.20;2.80;;;;;;;;;;4977363;28;20189;-59
2023/10/04 06:28:09;;;;;;;7.28;2.80;;;;;;;;;;4990881;28;20204;-62
2023/10/04 06:30:36;;;;;;;8.80;2.90;;;;;;;;;;4975642;28;20678;-59
2023/10/04 06:33:04;;;;;;;7.10;2.33;;;;;;;;;;4976951;28;20066;-60
2023/10/04 06:35:33;;;;;;;5.15;1.80;;;;;;;;;;5006797;28;20069;-62
2023/10/04 06:38:03;;;;;;;5.57;2.10;;;;;;;;;;4976136;28;20089;-65
2023/10/04 06:40:31;;;;;;;5.40;2.40;;;;;;;;;;4977416;28;20049;-63
2023/10/04 06:43:00;;;;;;;5.18;2.00;;;;;;;;;;4977357;28;20046;-60
2023/10/04 06:45:27;;;;;;;7.13;1.85;;;;;;;;;;4996347;28;21714;-61
2023/10/04 06:47:54;;;;;;;4.28;1.77;;;;;;;;;;4975272;28;20046;-62
2023/10/04 06:50:35;;;;;;;5.07;1.45;;;;;;;;;;4975152;28;20119;-61
2023/10/04 06:53:02;;;;;;;3.88;1.42;;;;;;;;;;4974772;28;20072;-63
2023/10/04 06:55:30;;;;;;;6.75;1.40;;;;;;;;;;4976516;28;20038;-61
2023/10/04 06:57:57;;;;;;;4.07;1.30;;;;;;;;;;4977826;28;20772;-64
2023/10/04 07:00:30;;;;;;;5.50;1.75;;;;;;;;;;4976132;28;20648;-64
2023/10/04 07:03:01;;;;;;;3.50;1.25;;;;;;;;;;4976614;28;20034;-64
2023/10/04 07:05:32;;;;;;;4.38;1.25;;;;;;;;;;4977626;28;20050;-63
2023/10/04 07:07:59;;;;;;;4.53;1.38;;;;;;;;;;4976157;28;20042;-65
2023/10/04 07:10:26;;;;;;;5.57;1.20;;;;;;;;;;4976451;28;20141;-62
2023/10/04 07:12:57;;;;;;;3.85;1.30;;;;;;;;;;4976341;28;20089;-63
2023/10/04 07:15:39;;;;;;;3.55;1.10;;;;;;;;;;4977184;28;20072;-62
2023/10/04 07:18:07;;;;;;;3.55;1.27;;;;;;;;;;4976420;28;20465;-60
2023/10/04 07:20:34;;;;;;;3.67;1.20;;;;;;;;;;4976058;28;20062;-64
2023/10/04 07:23:07;;;;;;;3.05;1.00;;;;;;;;;;4975780;28;20411;-62
2023/10/04 07:25:34;;;;;;;3.70;0.93;;;;;;;;;;4975386;28;20065;-60
2023/10/04 07:28:03;;;;;;;2.40;0.82;;;;;;;;;;4979292;28;20427;-63
2023/10/04 07:30:30;;;;;;;2.88;0.90;;;;;;;;;;4975883;28;20054;-60
2023/10/04 07:33:01;;;;;;;3.10;0.93;;;;;;;;;;4994342;28;20046;-60
2023/10/04 07:35:28;;;;;;;4.35;1.10;;;;;;;;;;4979305;28;20049;-63
2023/10/04 07:37:55;;;;;;;3.25;0.85;;;;;;;;;;4978190;28;20548;-62
2023/10/04 07:40:23;;;;;;;2.72;0.80;;;;;;;;;;4978933;28;20050;-60
2023/10/04 07:42:54;;;;;;;2.03;0.68;;;;;;;;;;4979123;28;20042;-62
2023/10/04 07:45:25;;;;;;;3.05;0.80;;;;;;;;;;4978761;28;20401;-63
2023/10/04 07:47:52;;;;;;;3.40;1.00;;;;;;;;;;4979207;28;20046;-65
2023/10/04 07:50:22;;;;;;;2.38;0.70;;;;;;;;;;4979104;28;20042;-62
2023/10/04 07:52:50;;;;;;;2.90;0.82;;;;;;;;;;5017105;28;20046;-63
2023/10/04 07:55:22;;;;;;;2.38;0.80;;;;;;;;;;4980102;28;20037;-63
2023/10/04 07:57:53;;;;;;;2.60;0.90;;;;;;;;;;4972746;28;20628;-62
2023/10/04 08:00:20;;;;;;;2.50;0.80;;;;;;;;;;4979644;28;20062;-61
2023/10/04 08:02:51;;;;;;;1.70;0.60;;;;;;;;;;4981087;28;20535;-63
2023/10/04 08:05:19;;;;;;;2.60;0.80;;;;;;;;;;4979878;28;20034;-62
2023/10/04 08:07:49;;;;;;;2.88;0.90;;;;;;;;;;4979172;28;20471;-64
2023/10/04 08:10:16;;;;;;;1.95;0.65;;;;;;;;;;4993817;28;20050;-62
2023/10/04 08:12:43;;;;;;;1.90;0.57;;;;;;;;;;4977993;28;20417;-61
2023/10/04 08:15:14;;;;;;;1.73;0.60;;;;;;;;;;4979493;28;20045;-63
2023/10/04 08:17:43;;;;;;;1.85;0.50;;;;;;;;;;4979309;28;20521;-63
2023/10/04 08:20:13;;;;;;;2.03;0.65;;;;;;;;;;4978289;28;20149;-62
2023/10/04 08:22:43;;;;;;;3.17;0.70;;;;;;;;;;4978452;28;20046;-61
2023/10/04 08:25:10;;;;;;;3.20;0.75;;;;;;;;;;4979273;28;20366;-62
2023/10/04 08:27:39;;;;;;;4.57;0.85;;;;;;;;;;4978849;28;20053;-63
2023/10/04 08:30:12;;;;;;;3.00;0.63;;;;;;;;;;4977780;28;20053;-62
2023/10/04 08:32:41;;;;;;;1.55;0.52;;;;;;;;;;4981913;28;20042;-63
2023/10/04 08:35:33;;;;;;;2.75;0.65;;;;;;;;;;4988511;28;20349;-60
2023/10/04 08:38:00;;;;;;;2.10;0.60;;;;;;;;;;5013492;28;20042;-62
2023/10/04 08:40:28;;;;;;;1.60;0.50;;;;;;;;;;4979249;28;20105;-61
2023/10/04 08:42:55;;;;;;;1.25;0.45;;;;;;;;;;4978664;28;20389;-60
2023/10/04 08:45:22;;;;;;;1.48;0.50;;;;;;;;;;4978759;28;20505;-60
2023/10/04 08:47:56;;;;;;;2.33;0.65;;;;;;;;;;4990150;28;20042;-65
2023/10/04 08:50:35;;;;;;;2.22;0.60;;;;;;;;;;4977538;28;20035;-63
2023/10/04 08:53:11;;;;;;;1.75;0.60;;;;;;;;;;4993092;28;20049;-60
2023/10/04 08:55:42;;;;;;;2.40;0.70;;;;;;;;;;4975629;28;20046;-60
2023/10/04 08:58:10;;;;;;;2.60;0.52;;;;;;;;;;4978091;28;20038;-61
2023/10/04 09:00:43;;;;;;;2.15;0.60;;;;;;;;;;4971577;28;20058;-59
2023/10/04 09:03:10;;;;;;;1.92;0.57;;;;;;;;;;4989756;28;20544;-61
2023/10/04 09:05:37;;;;;;;2.22;0.63;;;;;;;;;;4977613;28;20042;-61
2023/10/04 09:08:04;;;;;;;2.50;0.70;;;;;;;;;;4978008;28;20828;-61
2023/10/04 09:10:34;;;;;;;2.20;0.68;;;;;;;;;;4976463;28;20475;-59
2023/10/04 09:13:03;;;;;;;1.77;0.60;;;;;;;;;;4978335;28;20062;-59
2023/10/04 09:15:30;;;;;;;3.17;0.70;;;;;;;;;;4977447;28;20037;-60
2023/10/04 09:17:57;;;;;;;1.63;0.50;;;;;;;;;;4976242;28;20343;-63
2023/10/04 09:20:33;;;;;;;4.05;0.75;;;;;;;;;;4976585;28;20510;-60
2023/10/04 09:23:00;;;;;;;2.00;0.70;;;;;;;;;;4976593;28;20084;-61
2023/10/04 09:25:37;;;;;;;2.65;0.80;;;;;;;;;;4976576;28;20400;-60
2023/10/04 09:28:04;;;;;;;3.28;0.70;;;;;;;;;;4970741;28;20039;-61
2023/10/04 09:30:36;;;;;;;2.80;0.80;;;;;;;;;;4974713;28;20042;-62
2023/10/04 09:33:07;;;;;;;1.92;0.52;;;;;;;;;;4976956;28;21085;-58
2023/10/04 09:35:43;;;;;;;1.35;0.55;;;;;;;;;;5007505;28;20060;-59
2023/10/04 09:38:17;;;;;;;1.77;0.60;;;;;;;;;;4977076;28;20046;-60
2023/10/04 09:40:54;;;;;;;2.13;0.60;;;;;;;;;;4985082;28;20491;-60
2023/10/04 09:43:35;;;;;;;4.18;0.70;;;;;;;;;;4977312;28;20034;-58
2023/10/04 09:46:02;;;;;;;4.60;0.80;;;;;;;;;;4978362;28;20130;-62
2023/10/04 09:48:33;;;;;;;2.20;0.70;;;;;;;;;;4976753;28;20042;-61
2023/10/04 09:51:00;;;;;;;2.50;0.65;;;;;;;;;;4978080;28;20071;-59
2023/10/04 09:53:30;;;;;;;2.17;0.70;;;;;;;;;;4975294;28;20046;-61
2023/10/04 09:56:01;;;;;;;3.05;0.80;;;;;;;;;;4978586;28;20047;-62
2023/10/04 09:58:30;;;;;;;2.22;0.70;;;;;;;;;;4981898;28;20047;-61
2023/10/04 10:00:59;;;;;;;2.75;0.70;;;;;;;;;;4987476;28;20129;-62
2023/10/04 10:03:30;;;;;;;2.67;0.60;;;;;;;;;;4981461;28;20053;-61
2023/10/04 10:05:58;;;;;;;1.90;0.60;;;;;;;;;;4978605;28;20093;-62
2023/10/04 10:08:27;;;;;;;4.22;0.60;;;;;;;;;;4990005;28;20124;-60
2023/10/04 10:10:54;;;;;;;2.70;0.60;;;;;;;;;;4978015;28;20038;-59
2023/10/04 10:13:21;;;;;;;2.65;0.70;;;;;;;;;;4977328;28;20038;-62
2023/10/04 10:15:49;;;;;;;2.88;0.85;;;;;;;;;;4991985;28;20106;-57
2023/10/04 10:18:17;;;;;;;1.92;0.60;;;;;;;;;;4985853;28;20120;-58
2023/10/04 10:20:43;;;;;;;2.50;0.60;;;;;;;;;;4985927;28;20994;-59
2023/10/04 10:23:13;;;;;;;2.10;0.63;;;;;;;;;;4976668;28;20038;-58
2023/10/04 10:25:41;;;;;;;2.70;0.70;;;;;;;;;;4977097;28;20054;-59
2023/10/04 10:28:21;;;;;;;3.05;0.80;;;;;;;;;;4977309;28;20506;-58
2023/10/04 10:30:48;;;;;;;3.00;0.70;;;;;;;;;;4976831;28;20584;-58
2023/10/04 10:33:16;;;;;;;2.50;0.65;;;;;;;;;;4977411;28;20666;-57
2023/10/04 10:35:59;;;;;;;2.58;0.77;;;;;;;;;;4977329;28;20047;-59
2023/10/04 10:38:40;;;;;;;3.20;0.80;;;;;;;;;;4977840;28;20042;-58
2023/10/04 10:41:27;;;;;;;2.15;0.70;;;;;;;;;;4978431;28;20169;-59
2023/10/04 10:44:20;;;;;;;3.25;0.88;;;;;;;;;;4981338;28;20042;-58
2023/10/04 10:47:04;;;;;;;2.42;0.70;;;;;;;;;;4983930;28;20073;-58
2023/10/04 10:49:44;;;;;;;1.73;0.57;;;;;;;;;;4976788;28;21503;-60
2023/10/04 10:52:20;;;;;;;2.08;0.70;;;;;;;;;;4977119;28;20620;-58
2023/10/04 10:54:46;;;;;;;2.20;0.70;;;;;;;;;;4977157;28;20743;-57
2023/10/04 10:57:14;;;;;;;5.15;1.00;;;;;;;;;;4976991;28;20047;-59
2023/10/04 10:59:40;;;;;;;1.98;0.60;;;;;;;;;;4976808;28;20841;-58
2023/10/04 11:02:07;;;;;;;2.90;0.80;;;;;;;;;;4981321;28;20085;-61
2023/10/04 11:04:34;;;;;;;4.68;1.05;;;;;;;;;;4981042;28;20062;-62
2023/10/04 11:07:00;;;;;;;2.80;0.90;;;;;;;;;;4981348;28;20638;-59
2023/10/04 11:09:30;;;;;;;3.70;1.20;;;;;;;;;;5010198;28;20045;-61
2023/10/04 11:11:56;;;;;;;2.40;0.63;;;;;;;;;;4979814;28;20042;-59
2023/10/04 11:14:23;;;;;;;2.30;0.73;;;;;;;;;;4978599;28;20466;-62
2023/10/04 11:16:51;;;;;;;2.80;0.85;;;;;;;;;;4978663;28;20558;-60
2023/10/04 11:19:17;;;;;;;2.22;0.70;;;;;;;;;;5011871;28;20057;-60
2023/10/04 11:21:45;;;;;;;1.98;0.70;;;;;;;;;;4979763;28;20451;-59
2023/10/04 11:24:14;;;;;;;1.90;0.70;;;;;;;;;;4979121;28;21057;-62
2023/10/04 11:26:41;;;;;;;4.53;0.98;;;;;;;;;;4975031;28;20683;-60
2023/10/04 11:29:09;;;;;;;2.88;0.82;;;;;;;;;;4990308;28;20065;-61
2023/10/04 11:31:36;;;;;;;2.35;0.70;;;;;;;;;;4980716;28;20443;-59
2023/10/04 11:34:05;;;;;;;2.45;0.70;;;;;;;;;;4979586;28;20053;-62
2023/10/04 11:36:34;;;;;;;3.83;0.80;;;;;;;;;;4973409;28;20133;-62
2023/10/04 11:39:01;;;;;;;2.92;0.80;;;;;;;;;;5006252;28;20046;-62
2023/10/04 11:41:29;;;;;;;2.67;0.70;;;;;;;;;;4979725;28;20057;-61
2023/10/04 11:44:03;;;;;;;3.10;0.93;;;;;;;;;;4978793;28;20042;-60
2023/10/04 11:46:29;;;;;;;;;;;;;;;;;;4979858;28;20457;-61
2023/10/04 11:49:14;;;;;;;2.53;0.70;;;;;;;;;;4978761;28;19928;-63
2023/10/04 11:51:40;;;;;;;2.90;0.90;;;;;;;;;;4979116;28;20061;-62
2023/10/04 11:54:07;;;;;;;2.90;0.80;;;;;;;;;;4979264;28;20444;-62
2023/10/04 11:56:43;;;;;;;3.35;0.77;;;;;;;;;;5011141;28;20137;-61
2023/10/04 11:59:09;;;;;;;4.63;1.00;;;;;;;;;;4977228;28;20038;-59
2023/10/04 12:01:45;;;;;;;3.35;1.05;;;;;;;;;;4978180;28;20129;-58
2023/10/04 12:04:14;;;;;;;2.10;0.80;;;;;;;;;;4978032;28;20543;-63
2023/10/04 12:06:42;;;;;;;5.10;1.10;;;;;;;;;;4976989;28;20538;-63
2023/10/04 12:09:09;;;;;;;3.03;0.73;;;;;;;;;;4978021;28;20046;-62
2023/10/04 12:11:37;;;;;;;2.90;0.80;;;;;;;;;;4977117;28;20866;-60
2023/10/04 12:14:05;;;;;;;3.30;0.90;;;;;;;;;;4977943;28;20076;-60
2023/10/04 12:16:32;;;;;;;4.45;0.98;;;;;;;;;;4992429;28;20636;-60
2023/10/04 12:19:00;;;;;;;2.08;0.80;;;;;;;;;;4978942;28;20287;-62
2023/10/04 12:21:27;;;;;;;2.08;0.65;;;;;;;;;;4979997;28;20546;-64
2023/10/04 12:23:54;;;;;;;3.05;1.00;;;;;;;;;;4977877;28;20744;-62
2023/10/04 12:26:21;;;;;;;5.40;0.70;;;;;;;;;;4976396;28;20034;-60
2023/10/04 12:28:51;;;;;;;2.90;0.98;;;;;;;;;;4978378;28;20057;-59
2023/10/04 12:31:18;;;;;;;3.30;1.00;;;;;;;;;;4978960;28;20045;-62
2023/10/04 12:33:46;;;;;;;2.63;0.75;;;;;;;;;;4978806;28;20123;-62
2023/10/04 12:36:12;;;;;;;3.00;0.90;;;;;;;;;;4979735;28;20073;-60
2023/10/04 12:38:39;;;;;;;5.20;0.88;;;;;;;;;;4974641;28;20490;-60
2023/10/04 12:41:06;;;;;;;3.75;1.00;;;;;;;;;;5010975;28;20612;-60
2023/10/04 12:43:32;;;;;;;7.07;2.08;;;;;;;;;;4978835;28;20039;-65
2023/10/04 12:45:59;;;;;;;4.75;1.15;;;;;;;;;;4979326;28;20050;-61
2023/10/04 12:48:26;;;;;;;2.97;0.90;;;;;;;;;;4977098;28;20680;-59
2023/10/04 12:50:52;;;;;;;2.70;1.00;;;;;;;;;;5010332;28;20034;-59
2023/10/04 12:53:19;;;;;;;8.02;1.08;;;;;;;;;;4978983;28;20052;-62
2023/10/04 12:55:54;;;;;;;3.72;1.08;;;;;;;;;;4977804;28;20042;-62
2023/10/04 12:58:20;;;;;;;5.75;1.10;;;;;;;;;;4976329;28;20038;-61
2023/10/04 13:00:50;;;;;;;3.85;1.02;;;;;;;;;;4979379;28;21466;-61
2023/10/04 13:03:17;;;;;;;7.05;1.20;;;;;;;;;;4993496;28;20050;-61
2023/10/04 13:05:44;;;;;;;4.65;1.00;;;;;;;;;;4979986;28;20041;-61
2023/10/04 13:08:32;;;;;;;5.82;1.00;;;;;;;;;;4977812;28;20044;-58
2023/10/04 13:10:58;;;;;;;3.55;0.95;;;;;;;;;;4987221;28;20041;-59
2023/10/04 13:13:25;;;;;;;6.53;1.30;;;;;;;;;;4983501;28;20412;-59
2023/10/04 13:15:53;;;;;;;2.75;0.90;;;;;;;;;;4984128;28;21449;-66
2023/10/04 13:18:19;;;;;;;3.30;1.13;;;;;;;;;;4981633;28;20455;-63
2023/10/04 13:20:46;;;;;;;5.63;0.90;;;;;;;;;;4978764;28;20059;-61
2023/10/04 13:23:12;;;;;;;6.35;1.40;;;;;;;;;;4978179;28;20044;-61
2023/10/04 13:25:39;;;;;;;7.38;0.90;;;;;;;;;;4977023;28;20089;-61
2023/10/04 13:28:10;;;;;;;4.72;1.17;;;;;;;;;;4994023;28;20382;-58
2023/10/04 13:30:37;;;;;;;7.55;1.10;;;;;;;;;;4979266;28;20104;-60
2023/10/04 13:33:04;;;;;;;5.97;1.00;;;;;;;;;;4994606;28;20160;-62
2023/10/04 13:35:31;;;;;;;3.95;1.00;;;;;;;;;;4977489;28;20050;-63
2023/10/04 13:37:58;;;;;;;4.93;1.10;;;;;;;;;;4977119;28;20112;-59
2023/10/04 13:40:24;;;;;;;4.75;1.00;;;;;;;;;;4977391;28;20046;-62
2023/10/04 13:42:51;;;;;;;6.80;1.23;;;;;;;;;;4976779;28;20050;-61
2023/10/04 13:45:18;;;;;;;6.95;1.13;;;;;;;;;;4977638;28;20038;-59
2023/10/04 13:47:45;;;;;;;3.35;1.00;;;;;;;;;;4987776;28;20045;-58
2023/10/04 13:50:13;;;;;;;4.22;1.10;;;;;;;;;;4981440;28;20042;-62
2023/10/04 13:52:41;;;;;;;4.40;0.98;;;;;;;;;;4975326;28;20463;-61
2023/10/04 13:55:11;;;;;;;4.25;0.82;;;;;;;;;;4979245;28;20049;-62
2023/10/04 13:57:39;;;;;;;3.55;0.77;;;;;;;;;;4976361;28;20316;-63
2023/10/04 14:00:15;;;;;;;6.18;0.90;;;;;;;;;;4975140;28;20520;-63
2023/10/04 14:02:43;;;;;;;9.65;1.00;;;;;;;;;;4975250;28;20119;-60
2023/10/04 14:05:16;;;;;;;7.90;1.13;;;;;;;;;;4976114;28;20517;-60
2023/10/04 14:07:43;;;;;;;;;;;;;;;;;;4974092;28;20126;-60
2023/10/04 14:10:10;;;;;;;3.15;0.75;;;;;;;;;;4977293;28;19925;-61
2023/10/04 14:12:37;;;;;;;4.70;0.80;;;;;;;;;;4977079;28;20459;-61
2023/10/04 14:15:10;;;;;;;2.28;0.73;;;;;;;;;;4977307;28;20530;-68
2023/10/04 14:17:38;;;;;;;2.03;0.60;;;;;;;;;;4976435;28;20046;-59
2023/10/04 14:20:05;;;;;;;2.80;0.90;;;;;;;;;;4978329;28;20173;-61
2023/10/04 14:22:34;;;;;;;2.58;0.77;;;;;;;;;;4976941;28;20046;-62
2023/10/04 14:25:02;;;;;;;2.40;0.75;;;;;;;;;;4977192;28;20054;-59
2023/10/04 14:27:30;;;;;;;2.53;0.70;;;;;;;;;;4975791;28;20042;-61
2023/10/04 14:29:57;;;;;;;2.38;0.60;;;;;;;;;;4975487;28;20073;-60
2023/10/04 14:32:23;;;;;;;1.83;0.60;;;;;;;;;;4976418;28;20499;-60
2023/10/04 14:34:50;;;;;;;2.05;0.70;;;;;;;;;;4991339;28;20038;-60
2023/10/04 14:37:20;;;;;;;1.75;0.70;;;;;;;;;;4994161;28;20048;-62
2023/10/04 14:39:46;;;;;;;5.95;0.88;;;;;;;;;;4988708;28;20042;-62
2023/10/04 14:42:13;;;;;;;2.40;0.60;;;;;;;;;;4980148;28;20076;-63
2023/10/04 14:44:43;;;;;;;3.58;0.73;;;;;;;;;;4980260;28;20227;-61
2023/10/04 14:47:09;;;;;;;3.17;0.73;;;;;;;;;;4979861;28;20049;-63
2023/10/04 14:49:42;;;;;;;2.45;0.68;;;;;;;;;;4979525;28;20403;-59
2023/10/04 14:52:09;;;;;;;3.67;1.02;;;;;;;;;;4979378;28;20046;-64
2023/10/04 14:54:35;;;;;;;3.92;0.70;;;;;;;;;;4980240;28;20046;-60
2023/10/04 14:57:02;;;;;;;3.17;0.65;;;;;;;;;;4978168;28;20641;-62
2023/10/04 14:59:29;;;;;;;2.58;0.75;;;;;;;;;;4979342;28;20561;-60
2023/10/04 15:01:56;;;;;;;2.95;0.80;;;;;;;;;;4980740;28;20213;-59
2023/10/04 15:04:22;;;;;;;2.70;0.68;;;;;;;;;;4979149;28;20660;-61
2023/10/04 15:06:50;;;;;;;2.35;0.70;;;;;;;;;;4980200;28;20062;-58
2023/10/04 15:09:18;;;;;;;2.20;0.63;;;;;;;;;;5010494;28;20064;-61